createdAt,value
2019-03-24T00:02:16.095Z,12.63
2019-03-24T00:05:22.569Z,12.34
2019-03-24T00:08:28.829Z,12.50
2019-03-24T00:11:35.073Z,12.35
2019-03-24T00:14:41.442Z,12.46
2019-03-24T00:17:47.746Z,12.18
2019-03-24T00:20:54.436Z,12.42
2019-03-24T00:24:00.728Z,12.59
2019-03-24T00:27:07.139Z,12.62
2019-03-24T00:30:13.905Z,12.70
2019-03-24T00:33:20.226Z,12.43
2019-03-24T00:36:26.545Z,12.36
2019-03-24T00:39:32.935Z,12.12
2019-03-24T00:42:39.237Z,12.61
2019-03-24T00:45:45.773Z,12.63
2019-03-24T00:48:53.098Z,12.72
2019-03-24T00:51:59.399Z,12.54
2019-03-24T00:55:05.912Z,12.85
2019-03-24T00:58:12.193Z,12.62
2019-03-24T01:01:19.319Z,12.63
2019-03-24T01:04:25.663Z,12.25
2019-03-24T01:07:31.978Z,12.45
2019-03-24T01:10:39.559Z,12.60
2019-03-24T01:13:46.965Z,12.68
2019-03-24T01:16:53.235Z,12.75
2019-03-24T01:19:59.562Z,12.46
2019-03-24T01:23:06.060Z,12.44
2019-03-24T01:26:12.829Z,12.71
2019-03-24T01:29:19.086Z,12.64
2019-03-24T01:32:25.493Z,11.81
2019-03-24T01:35:31.848Z,12.04
2019-03-24T01:38:39.380Z,11.61
2019-03-24T01:41:45.740Z,12.15
2019-03-24T01:44:52.129Z,12.39
2019-03-24T01:47:58.429Z,12.50
2019-03-24T01:51:04.876Z,12.42
2019-03-24T01:54:11.145Z,12.13
2019-03-24T01:57:17.526Z,12.33
2019-03-24T02:00:23.916Z,12.11
2019-03-24T02:03:30.474Z,12.46
2019-03-24T02:06:38.642Z,12.61
2019-03-24T02:09:45.042Z,12.54
2019-03-24T02:12:51.395Z,12.69
2019-03-24T02:15:57.758Z,12.26
2019-03-24T02:19:05.460Z,11.85
2019-03-24T02:22:11.838Z,12.13
2019-03-24T02:25:19.212Z,11.91
2019-03-24T02:28:25.503Z,11.63
2019-03-24T02:31:31.821Z,11.67
2019-03-24T02:34:38.044Z,11.66
2019-03-24T02:37:44.390Z,11.54
2019-03-24T02:40:50.657Z,11.77
2019-03-24T02:43:57.039Z,11.75
2019-03-24T02:47:03.357Z,11.64
2019-03-24T02:50:10.448Z,11.61
2019-03-24T02:53:16.723Z,12.02
2019-03-24T02:56:23.047Z,11.83
2019-03-24T02:59:29.321Z,11.94
2019-03-24T03:02:35.696Z,12.05
2019-03-24T03:05:42.243Z,12.26
2019-03-24T03:08:48.491Z,12.33
2019-03-24T03:11:54.867Z,12.09
2019-03-24T03:15:01.209Z,12.23
2019-03-24T03:18:08.428Z,11.97
2019-03-24T03:21:14.699Z,11.77
2019-03-24T03:24:21.025Z,12.15
2019-03-24T03:27:27.480Z,12.26
2019-03-24T03:30:33.752Z,12.49
2019-03-24T03:33:40.076Z,12.22
2019-03-24T03:36:46.343Z,12.38
2019-03-24T03:39:57.378Z,12.43
2019-03-24T03:43:00.693Z,12.28
2019-03-24T03:46:07.161Z,12.46
2019-03-24T03:49:13.426Z,12.02
2019-03-24T03:52:19.924Z,12.26
2019-03-24T03:55:26.287Z,12.21
2019-03-24T03:58:32.558Z,12.50
2019-03-24T04:01:38.852Z,11.58
2019-03-24T04:04:45.235Z,11.38
2019-03-24T04:07:52.483Z,11.74
2019-03-24T04:10:58.842Z,11.65
2019-03-24T04:14:05.332Z,11.99
2019-03-24T04:17:11.621Z,11.93
2019-03-24T04:20:18.062Z,11.74
2019-03-24T04:23:24.355Z,12.04
2019-03-24T04:26:30.682Z,12.00
2019-03-24T04:29:36.970Z,11.84
2019-03-24T04:32:43.260Z,11.41
2019-03-24T04:35:49.520Z,11.22
2019-03-24T04:38:55.814Z,11.50
2019-03-24T04:42:02.107Z,11.22
2019-03-24T04:45:08.805Z,11.45
2019-03-24T04:48:15.073Z,11.94
2019-03-24T04:51:21.325Z,12.08
2019-03-24T04:54:27.632Z,11.99
2019-03-24T04:57:33.909Z,11.86
2019-03-24T05:00:41.243Z,12.07
2019-03-24T05:03:47.632Z,12.00
2019-03-24T05:06:54.446Z,12.16
2019-03-24T05:10:00.952Z,12.11
2019-03-24T05:13:07.269Z,12.27
2019-03-24T05:16:13.747Z,12.24
2019-03-24T05:19:20.058Z,12.28
2019-03-24T05:22:26.504Z,12.19
2019-03-24T05:25:32.792Z,12.18
2019-03-24T05:28:39.086Z,12.33
2019-03-24T05:31:45.404Z,12.17
2019-03-24T05:34:51.684Z,11.90
2019-03-24T05:37:57.995Z,11.86
2019-03-24T05:41:04.357Z,11.70
2019-03-24T05:44:10.680Z,11.90
2019-03-24T05:47:17.031Z,11.70
2019-03-24T05:50:23.331Z,11.43
2019-03-24T05:53:29.602Z,12.62
2019-03-24T05:56:35.989Z,12.74
2019-03-24T05:59:43.289Z,13.23
2019-03-24T06:02:49.568Z,13.51
2019-03-24T06:05:55.883Z,13.33
2019-03-24T06:09:02.176Z,13.64
2019-03-24T06:12:09.660Z,14.05
2019-03-24T06:15:16.146Z,14.20
2019-03-24T06:18:22.443Z,14.66
2019-03-24T06:21:28.709Z,14.85
2019-03-24T06:24:35.021Z,15.08
2019-03-24T06:27:41.344Z,15.26
2019-03-24T06:30:47.689Z,15.10
2019-03-24T06:33:53.992Z,15.24
2019-03-24T06:37:00.381Z,15.35
2019-03-24T06:40:06.859Z,15.29
2019-03-24T06:43:13.149Z,15.15
2019-03-24T06:46:19.412Z,15.64
2019-03-24T06:49:25.687Z,15.80
2019-03-24T06:52:32.111Z,15.98
2019-03-24T06:55:38.397Z,16.11
2019-03-24T06:58:44.702Z,16.15
2019-03-24T07:01:51.142Z,15.86
2019-03-24T07:04:57.430Z,15.82
2019-03-24T07:08:03.789Z,15.44
2019-03-24T07:11:13.628Z,15.42
2019-03-24T07:14:18.128Z,15.43
2019-03-24T07:17:24.534Z,16.23
2019-03-24T07:20:30.854Z,16.58
2019-03-24T07:23:37.130Z,16.86
2019-03-24T07:26:43.413Z,17.22
2019-03-24T07:29:49.790Z,17.35
2019-03-24T07:32:56.060Z,17.44
2019-03-24T07:36:02.382Z,17.35
2019-03-24T07:39:09.128Z,17.60
2019-03-24T07:42:15.460Z,17.47
2019-03-24T07:45:21.861Z,17.85
2019-03-24T07:48:28.174Z,18.06
2019-03-24T07:51:34.533Z,17.92
2019-03-24T07:54:40.903Z,17.97
2019-03-24T07:57:48.456Z,18.39
2019-03-24T08:00:54.751Z,17.92
2019-03-24T08:04:01.108Z,18.39
2019-03-24T08:07:07.632Z,17.00
2019-03-24T08:10:14.332Z,17.07
2019-03-24T08:13:20.872Z,17.12
2019-03-24T08:16:27.084Z,17.32
2019-03-24T08:19:33.407Z,18.18
2019-03-24T08:22:39.694Z,17.69
2019-03-24T08:25:46.100Z,18.13
2019-03-24T08:28:52.412Z,18.57
2019-03-24T08:31:58.817Z,18.82
2019-03-24T08:35:05.292Z,19.26
2019-03-24T08:38:11.639Z,19.26
2019-03-24T08:41:17.935Z,19.73
2019-03-24T08:44:24.445Z,20.25
2019-03-24T08:47:31.826Z,20.25
2019-03-24T08:50:38.344Z,20.50
2019-03-24T08:53:44.694Z,19.58
2019-03-24T08:56:52.044Z,20.48
2019-03-24T08:59:58.380Z,20.54
2019-03-24T09:03:04.909Z,20.39
2019-03-24T09:06:11.483Z,20.52
2019-03-24T09:09:17.741Z,20.34
2019-03-24T09:12:24.072Z,19.05
2019-03-24T09:15:30.439Z,20.15
2019-03-24T09:18:36.765Z,20.42
2019-03-24T09:21:43.061Z,20.64
2019-03-24T09:24:49.447Z,20.86
2019-03-24T09:27:55.738Z,21.13
2019-03-24T09:31:01.295Z,20.93
2019-03-24T09:34:07.807Z,21.07
2019-03-24T09:37:14.215Z,20.74
2019-03-24T09:40:27.287Z,20.80
2019-03-24T09:43:33.709Z,21.84
2019-03-24T09:46:39.978Z,21.95
2019-03-24T09:49:46.333Z,22.47
2019-03-24T09:52:52.650Z,22.65
2019-03-24T09:55:58.954Z,21.74
2019-03-24T09:59:05.247Z,21.31
2019-03-24T10:02:11.552Z,21.21
2019-03-24T10:05:17.974Z,22.16
2019-03-24T10:08:24.498Z,22.15
2019-03-24T10:11:30.836Z,22.10
2019-03-24T10:14:37.113Z,22.75
2019-03-24T10:17:43.390Z,22.36
2019-03-24T10:20:49.740Z,22.22
2019-03-24T10:23:56.064Z,21.87
2019-03-24T10:27:02.528Z,22.13
2019-03-24T10:30:10.078Z,22.42
2019-03-24T10:33:16.392Z,22.57
2019-03-24T10:36:22.747Z,22.25
2019-03-24T10:39:29.049Z,22.45
2019-03-24T10:42:35.321Z,22.92
2019-03-24T10:45:41.780Z,22.46
2019-03-24T10:48:48.115Z,22.62
2019-03-24T10:51:54.450Z,22.56
2019-03-24T10:55:01.137Z,22.99
2019-03-24T10:58:07.672Z,22.61
2019-03-24T11:01:13.953Z,22.15
2019-03-24T11:04:21.238Z,22.68
2019-03-24T11:07:27.589Z,23.26
2019-03-24T11:10:33.955Z,22.68
2019-03-24T11:13:40.457Z,21.76
2019-03-24T11:16:46.826Z,22.22
2019-03-24T11:19:53.205Z,21.13
2019-03-24T11:22:59.462Z,21.85
2019-03-24T11:26:05.871Z,21.65
2019-03-24T11:29:12.193Z,22.23
2019-03-24T11:32:18.531Z,20.92
2019-03-24T11:35:24.786Z,22.08
2019-03-24T11:38:31.064Z,21.68
2019-03-24T11:41:39.845Z,22.04
2019-03-24T11:44:46.436Z,21.79
2019-03-24T11:47:52.923Z,21.12
2019-03-24T11:50:59.205Z,20.87
2019-03-24T11:54:05.540Z,21.93
2019-03-24T11:57:11.846Z,23.01
2019-03-24T12:00:18.626Z,23.11
2019-03-24T12:03:25.483Z,22.58
2019-03-24T12:06:31.997Z,22.56
2019-03-24T12:09:38.493Z,22.69
2019-03-24T12:12:44.806Z,22.75
2019-03-24T12:15:51.307Z,22.30
2019-03-24T12:18:57.686Z,22.80
2019-03-24T12:22:04.073Z,22.69
2019-03-24T12:25:10.573Z,23.09
2019-03-24T12:28:16.859Z,23.18
2019-03-24T12:31:23.256Z,23.28
2019-03-24T12:34:29.631Z,23.27
2019-03-24T12:37:35.893Z,22.95
2019-03-24T12:40:42.195Z,23.35
2019-03-24T12:43:48.592Z,23.72
2019-03-24T12:46:55.199Z,23.75
2019-03-24T12:50:08.940Z,23.64
2019-03-24T12:53:09.490Z,23.49
2019-03-24T12:56:15.745Z,23.52
2019-03-24T12:59:22.002Z,23.61
2019-03-24T13:02:28.396Z,23.83
2019-03-24T13:05:34.908Z,23.77
2019-03-24T13:08:41.171Z,23.46
2019-03-24T13:11:47.597Z,24.00
2019-03-24T13:14:53.845Z,23.91
2019-03-24T13:18:00.168Z,24.06
2019-03-24T13:21:06.550Z,23.97
2019-03-24T13:24:12.827Z,24.17
2019-03-24T13:27:19.288Z,24.57
2019-03-24T13:30:25.794Z,24.73
2019-03-24T13:33:32.058Z,24.46
2019-03-24T13:36:38.309Z,24.37
2019-03-24T13:39:44.641Z,24.27
2019-03-24T13:42:51.041Z,23.52
2019-03-24T13:45:57.551Z,24.03
2019-03-24T13:49:03.865Z,24.03
2019-03-24T13:52:10.303Z,23.81
2019-03-24T13:55:16.770Z,24.25
2019-03-24T13:58:23.276Z,24.20
2019-03-24T14:01:29.800Z,23.76
2019-03-24T14:04:36.055Z,23.91
2019-03-24T14:07:42.585Z,24.06
2019-03-24T14:10:49.051Z,24.05
2019-03-24T14:13:55.488Z,24.34
2019-03-24T14:17:01.833Z,24.15
2019-03-24T14:20:08.757Z,24.02
2019-03-24T14:23:16.341Z,24.26
2019-03-24T14:26:22.695Z,23.88
2019-03-24T14:29:29.023Z,23.69
2019-03-24T14:32:35.391Z,23.57
2019-03-24T14:35:41.732Z,23.09
2019-03-24T14:38:47.999Z,23.04
2019-03-24T14:41:54.431Z,22.85
2019-03-24T14:45:01.813Z,22.78
2019-03-24T14:48:08.502Z,22.93
2019-03-24T14:51:15.022Z,22.67
2019-03-24T14:54:21.507Z,23.11
2019-03-24T14:57:28.783Z,23.07
2019-03-24T15:00:40.553Z,22.79
2019-03-24T15:03:46.815Z,22.88
2019-03-24T15:06:53.162Z,23.06
2019-03-24T15:09:59.473Z,22.74
2019-03-24T15:13:06.092Z,22.89
2019-03-24T15:16:12.360Z,22.99
2019-03-24T15:19:18.667Z,22.85
2019-03-24T15:22:25.018Z,22.73
2019-03-24T15:25:31.405Z,22.73
2019-03-24T15:28:38.010Z,22.65
2019-03-24T15:31:44.323Z,22.63
2019-03-24T15:34:50.640Z,21.67
2019-03-24T15:38:07.791Z,21.98
2019-03-24T15:41:05.044Z,21.81
2019-03-24T15:44:11.457Z,21.81
2019-03-24T15:47:17.723Z,21.62
2019-03-24T15:50:24.155Z,21.92
2019-03-24T15:53:30.686Z,21.59
2019-03-24T15:56:37.111Z,21.68
2019-03-24T15:59:43.486Z,21.46
2019-03-24T16:02:50.503Z,21.05
2019-03-24T16:05:56.742Z,21.19
2019-03-24T16:09:04.035Z,20.98
2019-03-24T16:12:10.322Z,20.75
2019-03-24T16:15:16.628Z,20.70
2019-03-24T16:18:23.697Z,20.61
2019-03-24T16:21:31.275Z,20.36
2019-03-24T16:24:39.234Z,20.42
2019-03-24T16:27:45.678Z,20.42
2019-03-24T16:30:52.034Z,20.38
2019-03-24T16:33:58.683Z,20.24
2019-03-24T16:37:05.079Z,20.12
2019-03-24T16:40:11.633Z,20.04
2019-03-24T16:43:18.732Z,19.93
2019-03-24T16:46:25.031Z,19.87
2019-03-24T16:49:32.312Z,19.72
2019-03-24T16:52:38.632Z,19.51
2019-03-24T16:55:45.653Z,19.60
2019-03-24T16:58:53.127Z,19.34
2019-03-24T17:01:59.422Z,19.41
2019-03-24T17:05:06.878Z,19.25
2019-03-24T17:08:13.914Z,19.39
2019-03-24T17:11:20.314Z,19.35
2019-03-24T17:14:27.599Z,19.34
2019-03-24T17:17:33.889Z,19.12
2019-03-24T17:20:40.601Z,19.12
2019-03-24T17:23:47.760Z,19.23
2019-03-24T17:26:54.258Z,19.31
2019-03-24T17:30:01.664Z,19.26
2019-03-24T17:33:08.956Z,19.10
2019-03-24T17:36:15.240Z,19.01
2019-03-24T17:39:22.288Z,19.05
2019-03-24T17:42:29.595Z,18.77
2019-03-24T17:45:36.190Z,18.89
2019-03-24T17:48:42.656Z,18.61
2019-03-24T17:52:00.225Z,18.93
2019-03-24T17:54:58.669Z,18.76
2019-03-24T17:58:05.982Z,18.68
2019-03-24T18:01:12.479Z,18.44
2019-03-24T18:04:24.618Z,18.63
2019-03-24T18:07:27.980Z,18.56
2019-03-24T18:10:35.349Z,18.56
2019-03-24T18:13:42.522Z,18.36
2019-03-24T18:16:49.696Z,18.32
2019-03-24T18:19:56.203Z,18.24
2019-03-24T18:23:03.369Z,18.01
2019-03-24T18:26:09.667Z,17.99
2019-03-24T18:29:17.444Z,18.08
2019-03-24T18:32:23.754Z,17.96
2019-03-24T18:35:30.705Z,17.98
2019-03-24T18:38:37.005Z,17.98
2019-03-24T18:41:43.321Z,17.93
2019-03-24T18:44:50.421Z,17.93
2019-03-24T18:47:57.926Z,17.82
2019-03-24T18:51:04.631Z,17.48
2019-03-24T18:54:11.011Z,17.48
2019-03-24T18:57:18.402Z,17.33
2019-03-24T19:00:26.352Z,17.16
2019-03-24T19:03:33.387Z,16.86
2019-03-24T19:06:40.565Z,17.00
2019-03-24T19:09:47.022Z,16.96
2019-03-24T19:12:53.840Z,16.90
2019-03-24T19:16:00.136Z,16.81
2019-03-24T19:19:06.733Z,16.80
2019-03-24T19:22:13.383Z,16.71
2019-03-24T19:25:19.834Z,16.69
2019-03-24T19:28:26.368Z,16.78
2019-03-24T19:31:33.734Z,16.71
2019-03-24T19:34:40.114Z,16.45
2019-03-24T19:37:48.192Z,16.40
2019-03-24T19:40:54.496Z,15.98
2019-03-24T19:44:01.533Z,16.03
2019-03-24T19:47:08.584Z,15.62
2019-03-24T19:50:15.277Z,15.48
2019-03-24T19:53:22.792Z,15.37
2019-03-24T19:56:29.844Z,15.38
2019-03-24T19:59:36.976Z,15.64
2019-03-24T20:02:44.452Z,15.69
2019-03-24T20:05:50.771Z,15.53
2019-03-24T20:08:57.510Z,15.41
2019-03-24T20:12:03.894Z,15.51
2019-03-24T20:15:10.873Z,15.49
2019-03-24T20:18:17.134Z,15.37
2019-03-24T20:21:23.440Z,15.46
2019-03-24T20:24:30.658Z,15.43
2019-03-24T20:27:36.973Z,14.69
2019-03-24T20:30:43.483Z,14.69
2019-03-24T20:33:50.436Z,14.66
2019-03-24T20:36:57.468Z,14.64
2019-03-24T20:40:03.886Z,14.46
2019-03-24T20:43:11.707Z,14.39
2019-03-24T20:46:17.992Z,14.50
2019-03-24T20:49:27.322Z,14.35
2019-03-24T20:52:33.630Z,13.86
2019-03-24T20:55:40.677Z,14.24
2019-03-24T20:58:46.963Z,14.04
2019-03-24T21:01:54.107Z,14.06
2019-03-24T21:05:02.137Z,13.99
2019-03-24T21:08:09.950Z,13.97
2019-03-24T21:11:16.172Z,13.85
2019-03-24T21:14:22.732Z,13.86
2019-03-24T21:17:30.093Z,13.79
2019-03-24T21:20:37.333Z,13.91
2019-03-24T21:23:43.635Z,13.97
2019-03-24T21:26:50.839Z,14.09
2019-03-24T21:29:58.034Z,13.99
2019-03-24T21:33:04.513Z,14.05
2019-03-24T21:36:11.735Z,13.71
2019-03-24T21:39:17.997Z,13.51
2019-03-24T21:42:24.367Z,14.06
2019-03-24T21:45:30.767Z,14.14
2019-03-24T21:48:37.194Z,13.75
2019-03-24T21:51:43.606Z,13.44
2019-03-24T21:54:49.908Z,13.54
2019-03-24T21:57:57.705Z,13.73
2019-03-24T22:01:04.407Z,13.95
2019-03-24T22:04:11.829Z,13.94
2019-03-24T22:07:18.148Z,13.82
2019-03-24T22:10:24.417Z,13.45
2019-03-24T22:13:30.683Z,13.59
2019-03-24T22:16:37.051Z,14.00
2019-03-24T22:19:43.327Z,13.87
2019-03-24T22:22:49.591Z,13.88
2019-03-24T22:25:55.877Z,13.86
2019-03-24T22:29:02.173Z,13.97
2019-03-24T22:32:08.534Z,14.08
2019-03-24T22:35:14.813Z,14.17
2019-03-24T22:38:21.154Z,13.98
2019-03-24T22:41:27.423Z,13.64
2019-03-24T22:44:33.863Z,13.78
2019-03-24T22:47:40.126Z,14.15
2019-03-24T22:50:46.471Z,14.44
2019-03-24T22:54:02.981Z,14.42
2019-03-24T22:57:00.758Z,14.23
2019-03-24T23:00:12.065Z,14.34
2019-03-24T23:03:19.983Z,14.18
2019-03-24T23:06:26.321Z,14.08
2019-03-24T23:09:32.646Z,14.20
2019-03-24T23:12:39.030Z,14.22
2019-03-24T23:15:45.385Z,14.20
2019-03-24T23:18:51.837Z,14.23
2019-03-24T23:22:00.963Z,14.32
2019-03-24T23:25:08.085Z,14.34
2019-03-24T23:28:14.681Z,13.86
2019-03-24T23:31:20.952Z,13.99
2019-03-24T23:34:27.358Z,14.04
2019-03-24T23:37:33.630Z,14.19
2019-03-24T23:40:40.060Z,14.16
2019-03-24T23:43:46.329Z,14.07
2019-03-24T23:46:53.905Z,14.31
2019-03-24T23:50:00.343Z,13.49
2019-03-24T23:53:06.880Z,13.90
2019-03-24T23:56:13.232Z,14.02
2019-03-24T23:59:19.524Z,14.05
